DLH001 EGKK-EDDF
Flight info
| Callsign | DLH001 |
|---|---|
| Flight time | N/A |
| Altitude | 35000 |
| Route | MIMFO1M MIMFO Y312 DVR UL9 KONAN UL607 SPI T180 NIVNU/N0388F230 T847 IMCOM IMCOM1A |
| Aircraft | A333/H-SDE3GHIJ2J3J5M1RVWXY/LB2D1 |
Departure
| Time | 2026-04-15 16:40 |
|---|---|
| Airport | London Gatwick Airport (EGKK) |
Arrival
| Time | N/A |
|---|---|
| Airport | Frankfurt Main Airport (EDDF) |
| Time | Latitude | Longitude | Altitude | Speed | Heading |
|---|---|---|---|---|---|
| 2026-04-15 15:56 | 51.15320 | -0.17748 | 197 ft | 0 kts | 348° |
| 2026-04-15 16:16 | 51.15312 | -0.17745 | 197 ft | 2 kts | 348° |
| 2026-04-15 16:16 | 51.15297 | -0.17739 | 197 ft | 2 kts | 352° |
| 2026-04-15 16:16 | 51.15282 | -0.17739 | 197 ft | 2 kts | 15° |
| 2026-04-15 16:17 | 51.15269 | -0.17748 | 197 ft | 2 kts | 33° |
| 2026-04-15 16:17 | 51.15258 | -0.17763 | 198 ft | 2 kts | 52° |
| 2026-04-15 16:17 | 51.15250 | -0.17783 | 198 ft | 2 kts | 71° |
| 2026-04-15 16:17 | 51.15248 | -0.17795 | 198 ft | 0 kts | 79° |
| 2026-04-15 16:25 | 51.15255 | -0.17748 | 197 ft | 11 kts | 75° |
| 2026-04-15 16:25 | 51.15280 | -0.17570 | 197 ft | 21 kts | 76° |
| 2026-04-15 16:25 | 51.15308 | -0.17311 | 190 ft | 26 kts | 79° |
| 2026-04-15 16:25 | 51.15338 | -0.17094 | 188 ft | 18 kts | 77° |
| 2026-04-15 16:26 | 51.15355 | -0.16963 | 189 ft | 0 kts | 79° |
| 2026-04-15 16:26 | 51.15356 | -0.16957 | 189 ft | 2 kts | 79° |
| 2026-04-15 16:26 | 51.15363 | -0.16901 | 190 ft | 7 kts | 78° |
| 2026-04-15 16:27 | 51.15377 | -0.16789 | 193 ft | 11 kts | 79° |
| 2026-04-15 16:27 | 51.15395 | -0.16650 | 199 ft | 14 kts | 77° |
| 2026-04-15 16:27 | 51.15400 | -0.16617 | 201 ft | 0 kts | 77° |
| 2026-04-15 16:29 | 51.15401 | -0.16611 | 201 ft | 3 kts | 77° |
| 2026-04-15 16:29 | 51.15405 | -0.16542 | 203 ft | 8 kts | 100° |
| 2026-04-15 16:29 | 51.15390 | -0.16503 | 204 ft | 1 kts | 141° |
| 2026-04-15 16:30 | 51.15358 | -0.16485 | 204 ft | 3 kts | 169° |
| 2026-04-15 16:30 | 51.15310 | -0.16492 | 204 ft | 10 kts | 224° |
| 2026-04-15 16:30 | 51.15305 | -0.16503 | 204 ft | 0 kts | 240° |
| 2026-04-15 16:30 | 51.15302 | -0.16517 | 203 ft | 0 kts | 249° |
| 2026-04-15 16:33 | 51.15301 | -0.16518 | 203 ft | 1 kts | 249° |
| 2026-04-15 16:33 | 51.15296 | -0.16540 | 202 ft | 0 kts | 247° |
| 2026-04-15 16:33 | 51.15295 | -0.16541 | 202 ft | 0 kts | 252° |
| 2026-04-15 16:34 | 51.15289 | -0.16583 | 201 ft | 8 kts | 256° |
| 2026-04-15 16:35 | 51.15274 | -0.16623 | 199 ft | 0 kts | 227° |
| 2026-04-15 16:35 | 51.15263 | -0.16641 | 198 ft | 3 kts | 218° |
| 2026-04-15 16:35 | 51.15248 | -0.16649 | 198 ft | 0 kts | 179° |
| 2026-04-15 16:35 | 51.15247 | -0.16648 | 198 ft | 0 kts | 174° |
| 2026-04-15 16:37 | 51.15242 | -0.16647 | 198 ft | 3 kts | 172° |
| 2026-04-15 16:38 | 51.15190 | -0.16635 | 199 ft | 10 kts | 176° |
| 2026-04-15 16:38 | 51.15131 | -0.16751 | 195 ft | 19 kts | 250° |
| 2026-04-15 16:38 | 51.15124 | -0.16794 | 193 ft | 0 kts | 258° |
| 2026-04-15 16:39 | 51.15119 | -0.16825 | 193 ft | 8 kts | 256° |
| 2026-04-15 16:39 | 51.15055 | -0.17274 | 194 ft | 85 kts | 256° |
| 2026-04-15 16:39 | 51.14863 | -0.18665 | 248 ft | 164 kts | 253° |
| 2026-04-15 16:39 | 51.14630 | -0.20537 | 748 ft | 175 kts | 256° |
| 2026-04-15 16:40 | 51.14421 | -0.22453 | 1370 ft | 174 kts | 256° |
| 2026-04-15 16:40 | 51.14199 | -0.24201 | 2320 ft | 161 kts | 254° |
| 2026-04-15 16:40 | 51.13990 | -0.25826 | 3217 ft | 152 kts | 252° |
| 2026-04-15 16:40 | 51.13775 | -0.27432 | 3957 ft | 153 kts | 252° |
| 2026-04-15 16:41 | 51.13544 | -0.29137 | 3996 ft | 156 kts | 253° |
| 2026-04-15 16:41 | 51.13318 | -0.30799 | 4010 ft | 151 kts | 253° |
| 2026-04-15 16:41 | 51.13100 | -0.32417 | 4020 ft | 152 kts | 252° |
| 2026-04-15 16:41 | 51.12947 | -0.34070 | 4013 ft | 152 kts | 258° |
| 2026-04-15 16:42 | 51.12848 | -0.35740 | 4021 ft | 152 kts | 258° |
| 2026-04-15 16:42 | 51.12743 | -0.37413 | 4022 ft | 152 kts | 258° |
| 2026-04-15 16:42 | 51.12638 | -0.39100 | 4022 ft | 152 kts | 258° |
| 2026-04-15 16:42 | 51.12382 | -0.40683 | 3981 ft | 146 kts | 233° |
| 2026-04-15 16:43 | 51.11518 | -0.41447 | 4021 ft | 154 kts | 192° |
| 2026-04-15 16:43 | 51.10469 | -0.40885 | 4016 ft | 175 kts | 150° |
| 2026-04-15 16:43 | 51.09849 | -0.39104 | 4013 ft | 195 kts | 107° |
| 2026-04-15 16:43 | 51.10068 | -0.36936 | 4014 ft | 210 kts | 66° |
| 2026-04-15 16:44 | 51.11083 | -0.35317 | 4014 ft | 209 kts | 24° |
| 2026-04-15 16:44 | 51.12429 | -0.34720 | 4058 ft | 202 kts | 6° |
| 2026-04-15 16:44 | 51.13818 | -0.34269 | 4015 ft | 203 kts | 5° |
| 2026-04-15 16:44 | 51.15202 | -0.33820 | 4017 ft | 203 kts | 6° |
| 2026-04-15 16:45 | 51.16595 | -0.33365 | 4018 ft | 203 kts | 6° |
| 2026-04-15 16:45 | 51.17972 | -0.32915 | 4018 ft | 204 kts | 6° |
| 2026-04-15 16:45 | 51.19238 | -0.31877 | 3985 ft | 208 kts | 45° |
| 2026-04-15 16:45 | 51.19881 | -0.29862 | 4015 ft | 203 kts | 88° |
| 2026-04-15 16:46 | 51.19809 | -0.27680 | 4037 ft | 198 kts | 102° |
| 2026-04-15 16:46 | 51.19859 | -0.25422 | 4290 ft | 217 kts | 90° |
| 2026-04-15 16:46 | 51.20058 | -0.23117 | 5170 ft | 210 kts | 87° |
| 2026-04-15 16:46 | 51.20318 | -0.20707 | 5629 ft | 231 kts | 84° |
| 2026-04-15 16:47 | 51.20637 | -0.18127 | 6166 ft | 248 kts | 83° |
| 2026-04-15 16:47 | 51.20996 | -0.15315 | 6602 ft | 272 kts | 83° |
| 2026-04-15 16:47 | 51.21395 | -0.12285 | 7304 ft | 283 kts | 82° |
| 2026-04-15 16:47 | 51.21791 | -0.09266 | 8177 ft | 286 kts | 82° |
| 2026-04-15 16:48 | 51.22198 | -0.06150 | 8940 ft | 292 kts | 83° |
| 2026-04-15 16:48 | 51.22612 | -0.02977 | 9758 ft | 294 kts | 82° |
| 2026-04-15 16:48 | 51.23030 | 0.00233 | 10495 ft | 298 kts | 83° |
| 2026-04-15 16:48 | 51.23441 | 0.03411 | 11240 ft | 300 kts | 82° |
| 2026-04-15 16:49 | 51.23867 | 0.06693 | 11847 ft | 308 kts | 83° |
| 2026-04-15 16:49 | 51.24308 | 0.10140 | 12235 ft | 329 kts | 82° |
| 2026-04-15 16:49 | 51.24787 | 0.13841 | 12844 ft | 346 kts | 82° |
| 2026-04-15 16:49 | 51.25264 | 0.17552 | 13812 ft | 349 kts | 82° |
| 2026-04-15 16:50 | 51.25415 | 0.21349 | 14669 ft | 345 kts | 101° |
| 2026-04-15 16:50 | 51.25117 | 0.25105 | 15538 ft | 347 kts | 102° |
| 2026-04-15 16:50 | 51.24829 | 0.28951 | 16424 ft | 350 kts | 103° |
| 2026-04-15 16:50 | 51.24540 | 0.32744 | 17267 ft | 352 kts | 103° |
| 2026-04-15 16:51 | 51.24245 | 0.36636 | 18012 ft | 357 kts | 103° |
| 2026-04-15 16:51 | 51.23944 | 0.40590 | 18830 ft | 359 kts | 103° |
| 2026-04-15 16:51 | 51.23642 | 0.44515 | 19536 ft | 363 kts | 104° |
| 2026-04-15 16:51 | 51.23338 | 0.48487 | 20218 ft | 366 kts | 104° |
| 2026-04-15 16:52 | 51.22928 | 0.52443 | 20906 ft | 365 kts | 108° |
| 2026-04-15 16:52 | 51.22472 | 0.56457 | 21575 ft | 368 kts | 107° |
| 2026-04-15 16:52 | 51.22028 | 0.60420 | 22167 ft | 371 kts | 108° |
| 2026-04-15 16:52 | 51.21570 | 0.64479 | 22750 ft | 375 kts | 108° |
| 2026-04-15 16:53 | 51.21105 | 0.68613 | 23329 ft | 378 kts | 108° |
| 2026-04-15 16:53 | 51.20644 | 0.72689 | 23909 ft | 380 kts | 109° |
| 2026-04-15 16:53 | 51.20168 | 0.76860 | 24367 ft | 384 kts | 109° |
| 2026-04-15 16:53 | 51.19696 | 0.81007 | 24867 ft | 387 kts | 109° |
| 2026-04-15 16:54 | 51.19212 | 0.85250 | 25351 ft | 390 kts | 109° |
| 2026-04-15 16:54 | 51.18725 | 0.89494 | 25788 ft | 393 kts | 109° |
| 2026-04-15 16:54 | 51.18237 | 0.93737 | 26264 ft | 395 kts | 109° |
| 2026-04-15 16:54 | 51.17735 | 0.98073 | 26660 ft | 399 kts | 109° |
| 2026-04-15 16:55 | 51.17233 | 1.02404 | 27019 ft | 404 kts | 108° |
| 2026-04-15 16:55 | 51.16721 | 1.06826 | 27461 ft | 406 kts | 109° |
| 2026-04-15 16:55 | 51.16212 | 1.11179 | 27845 ft | 408 kts | 109° |
| 2026-04-15 16:55 | 51.15687 | 1.15662 | 28177 ft | 413 kts | 108° |
| 2026-04-15 16:56 | 51.15165 | 1.20120 | 28597 ft | 414 kts | 109° |
| 2026-04-15 16:56 | 51.14629 | 1.24653 | 28911 ft | 418 kts | 109° |
| 2026-04-15 16:56 | 51.14096 | 1.29167 | 29317 ft | 419 kts | 109° |
| 2026-04-15 16:56 | 51.13557 | 1.33701 | 29655 ft | 421 kts | 109° |
| 2026-04-15 16:57 | 51.13016 | 1.38257 | 30010 ft | 422 kts | 109° |
| 2026-04-15 16:57 | 51.11916 | 1.47440 | 30036 ft | 423 kts | 109° |
| 2026-04-15 16:58 | 51.10805 | 1.56654 | 30055 ft | 424 kts | 108° |
| 2026-04-15 16:58 | 51.09695 | 1.65803 | 30051 ft | 417 kts | 109° |
| 2026-04-15 16:59 | 51.08608 | 1.74694 | 30057 ft | 409 kts | 109° |
| 2026-04-15 16:59 | 51.07516 | 1.83561 | 30059 ft | 409 kts | 109° |
| 2026-04-15 17:00 | 51.06424 | 1.92380 | 30064 ft | 410 kts | 109° |
| 2026-04-15 17:00 | 51.05322 | 2.01217 | 30062 ft | 409 kts | 109° |
| 2026-04-15 17:01 | 51.04207 | 2.10095 | 30075 ft | 412 kts | 109° |
| 2026-04-15 17:01 | 51.03093 | 2.18923 | 30073 ft | 410 kts | 109° |
| 2026-04-15 17:02 | 51.01960 | 2.27832 | 30070 ft | 412 kts | 109° |
| 2026-04-15 17:02 | 51.00824 | 2.36706 | 30072 ft | 412 kts | 109° |
| 2026-04-15 17:03 | 50.99689 | 2.45524 | 30079 ft | 411 kts | 109° |
| 2026-04-15 17:03 | 50.98537 | 2.54401 | 30094 ft | 414 kts | 109° |
| 2026-04-15 17:04 | 50.97374 | 2.63331 | 30086 ft | 413 kts | 109° |
| 2026-04-15 17:04 | 50.96219 | 2.72131 | 30077 ft | 412 kts | 109° |
| 2026-04-15 17:05 | 50.95043 | 2.81033 | 30090 ft | 413 kts | 109° |
| 2026-04-15 17:05 | 50.93866 | 2.89898 | 30085 ft | 412 kts | 109° |
| 2026-04-15 17:06 | 50.92678 | 2.98776 | 30080 ft | 413 kts | 109° |
| 2026-04-15 17:06 | 50.91489 | 3.07616 | 30092 ft | 414 kts | 109° |
| 2026-04-15 17:07 | 50.90276 | 3.16575 | 30094 ft | 416 kts | 109° |
| 2026-04-15 17:07 | 50.89270 | 3.23963 | 30100 ft | 415 kts | 109° |
| 2026-04-15 17:08 | 50.87850 | 3.34323 | 30098 ft | 416 kts | 109° |
| 2026-04-15 17:08 | 50.86618 | 3.43269 | 30107 ft | 417 kts | 109° |
| 2026-04-15 17:09 | 50.85389 | 3.52134 | 30119 ft | 416 kts | 108° |
| 2026-04-15 17:09 | 50.84135 | 3.61114 | 30113 ft | 418 kts | 108° |
| 2026-04-15 17:10 | 50.82902 | 3.69925 | 30088 ft | 398 kts | 109° |
| 2026-04-15 17:10 | 50.82317 | 3.74085 | 30093 ft | 383 kts | 109° |
| 2026-04-15 17:10 | 50.81740 | 3.78153 | 30100 ft | 382 kts | 109° |
| 2026-04-15 17:11 | 50.80574 | 3.86348 | 30110 ft | 388 kts | 109° |
| 2026-04-15 17:11 | 50.79387 | 3.94655 | 30114 ft | 387 kts | 109° |
| 2026-04-15 17:12 | 50.77607 | 4.07053 | 30118 ft | 387 kts | 109° |
| 2026-04-15 17:12 | 50.76418 | 4.15271 | 30131 ft | 387 kts | 109° |
| 2026-04-15 17:13 | 50.75213 | 4.23555 | 30128 ft | 388 kts | 108° |
| 2026-04-15 17:13 | 50.74010 | 4.31777 | 30131 ft | 387 kts | 108° |
| 2026-04-15 17:14 | 50.72795 | 4.40050 | 30134 ft | 387 kts | 108° |
| 2026-04-15 17:14 | 50.71576 | 4.48292 | 30132 ft | 387 kts | 108° |
| 2026-04-15 17:15 | 50.70353 | 4.56517 | 30129 ft | 388 kts | 108° |
| 2026-04-15 17:15 | 50.69534 | 4.62014 | 30141 ft | 387 kts | 108° |
| 2026-04-15 17:16 | 50.67885 | 4.73011 | 30139 ft | 386 kts | 108° |